Tiempo atmosférico en la estación meteorológica de Cillórigo de Liébana, Tama, Cantabria (250 m.)



Fecha
DESCASC
Temp. máxima en grados centígrados (hora)
DESCASC
Temp. mínima en grados centígrados (hora)
DESCASC
Temp. media en grados centígrados
DESCASC
Racha de viento máxima en m/sg (hora)
DESCASC
Velocidad máxima media en intervalos de 10 minutos(hora)
DESCASC
Precipitaciones diarias en mm
DESCASC
Precipitaciones de 00:00 a 06:00 en mm
DESCASC
Precipitaciones de 06:00 a 12:00 en mm
DESCASC
Precipitaciones de 12:00 a 18:00 en mm
DESCASC
Precipitaciones de 18:00 a 24:00 en mm
DESCASC
20-09-2018 28.3 (15:20) 16 (00:20) 22.1 10.28 (18:10) 4.72 (17:50) 0 0 0 0 0
19-09-2018 26 (16:30) 15.9 (00:20) 20.9 9.17 (15:50) 5 (17:00) 0 0 0 0 0
18-09-2018 26 (14:40) 12.9 (08:40) 19.4 12.5 (15:30) 6.39 (15:30) 0 0 0 0 0
17-09-2018 34.2 (14:50) 14 (09:10) 24.1 10 (17:30) 4.72 (16:20) 0 0 0 0 0
16-09-2018 23.7 (15:30) 13.2 (00:00) 18.5 11.39 (18:00) 6.39 (13:00) 0 0 0 0 0
15-09-2018 26.8 (16:00) 17.1 (00:00) 21.9 7.5 (18:30) 3.61 (18:10) 0 0 0 0 0
14-09-2018 24.7 (14:00) 17.5 (00:00) 21.1 12.5 (16:40) 5.83 (17:10) 0 0 0 0 0
13-09-2018 24.4 (13:30) 18.3 (00:00) 21.3 10.56 (17:20) 5 (17:10) 0 0 0 0 0
12-09-2018 25.5 (13:50) 12.7 (00:00) 19.1 12.5 (15:10) 6.11 (15:00) 0 0 0 0 0
11-09-2018 29.8 (15:20) 13.3 (00:00) 21.5 8.61 (15:50) 4.44 (16:30) 0 0 0 0 0
10-09-2018 26.6 (17:20) 15.5 (00:00) 21.1 9.44 (18:50) 3.89 (18:40) 0 0 0 0 0
09-09-2018 21.3 (18:50) 14.4 (00:00) 17.8 6.11 (19:30) 2.78 (19:30) 5.2 0 0 5.2 0
08-09-2018 28.1 (15:40) 11.9 (00:00) 20 8.61 (17:10) 4.72 (17:20) 8.6 0 0 0 8.6
07-09-2018 23 (15:10) 15.1 (00:00) 19.1 10.28 (16:50) 4.44 (17:40) 0.4 0.4 0 0 0
06-09-2018 21.5 (15:30) 15.9 (00:00) 18.7 8.06 (12:40) 4.17 (17:20) 2.4 0.4 0 0 2
05-09-2018 21.8 (16:20) 12.6 (00:00) 17.2 5.83 (20:00) 2.5 (20:00) 8.2 0 4.6 2.6 1
04-09-2018 24.7 (14:00) 11.5 (00:00) 18.1 9.72 (15:30) 5.56 (15:10) 0 0 0 0 0
03-09-2018 26.1 (13:00) 13.7 (00:00) 19.9 9.72 (14:50) 5 (18:00) 0 0 0 0 0
02-09-2018 31.2 (15:20) 14 (00:00) 22.6 10.28 (19:10) 5 (19:20) 0 0 0 0 0
01-09-2018 28.5 (15:50) 11.8 (00:00) 20.2 9.17 (17:40) 4.44 (17:40) 0 0 0 0 0
31-08-2018 26.4 (15:50) 14.2 (00:00) 20.3 10.83 (16:30) 5.28 (18:00) 0 0 0 0 0
30-08-2018 23.6 (15:40) 16.9 (00:00) 20.3 8.61 (17:40) 3.61 (17:40) 0 0 0 0 0
29-08-2018 23.6 (13:30) 12.5 (00:00) 18.1 10.83 (16:40) 6.11 (15:10) 0 0 0 0 0
28-08-2018 29.3 (16:20) 14.8 (00:00) 22 11.11 (16:20) 5.56 (17:10) 0 0 0 0 0
27-08-2018 27.2 (14:00) 12.9 (00:00) 20.1 12.78 (16:30) 5.28 (15:50) 0 0 0 0 0
26-08-2018 26.6 (16:40) 15.9 (00:00) 21.3 10.83 (17:10) 5 (16:30) 0 0 0 0 0
25-08-2018 22.5 (13:10) 13.8 (00:00) 18.2 10.56 (16:10) 5 (14:50) 0 0 0 0 0
24-08-2018 22.1 (12:20) 16.8 (00:00) 19.4 10.83 (15:50) 6.39 (16:20) 0 0 0 0 0

Gráficas

Temp. máximas Temp. mínimas Temp. medias Precipitaciones Rachas de viento máximas Velocidades máximas media en intervalos de 10 minutos

Datos horarios

Fecha y hora oficial Temperatura (ºC) Velocidad del viento (km/h) Dirección del viento Racha (km/h) Dirección de racha Precipitación (mm) Presión (hPa) Tendencia (hPa) Humedad (%)
2018-09-22 23:00:00 19.3 0 Calma 3 Oeste 0 -- -- 84
2018-09-22 22:00:00 20.9 0 Calma 7 Oeste 0 -- -- 77
2018-09-22 21:00:00 22.5 3 Sudoeste 9 Este 0 -- -- 71
2018-09-22 20:00:00 25 5 Norte 25 Norte 0 -- -- 62
2018-09-22 19:00:00 27 10 Noroeste 26 Norte 0 -- -- 56
2018-09-22 18:00:00 28 15 Norte 35 Norte 0 -- -- 53
2018-09-22 17:00:00 28.6 17 Norte 33 Norte 0 -- -- 51
2018-09-22 16:00:00 29 15 Norte 27 Norte 0 -- -- 50
2018-09-22 15:00:00 29.3 9 Noroeste 22 Norte 0 -- -- 46
2018-09-22 14:00:00 28.2 9 Norte 23 Este 0 -- -- 47
2018-09-22 13:00:00 25.5 0 Calma 0 Calma 0 -- -- 57
2018-09-22 12:00:00 21.8 0 Calma 0 Calma 0 -- -- 69
2018-09-22 11:00:00 18.7 0 Calma -- -- 0 -- -- 79
2018-09-22 10:00:00 13.8 0 Calma -- -- 0 -- -- 98
2018-09-22 09:00:00 12.8 0 Calma -- -- 0 -- -- 97
2018-09-22 08:00:00 12.9 0 Calma -- -- 0 -- -- 96
2018-09-22 07:00:00 13.4 0 Calma -- -- 0 -- -- 96
2018-09-22 06:00:00 14 0 Calma -- -- 0 -- -- 95
2018-09-22 05:00:00 14.6 0 Calma 0 Calma 0 -- -- 94
2018-09-22 04:00:00 15.6 0 Calma -- -- 0 -- -- 93
2018-09-22 03:00:00 16.4 0 Calma -- -- 0 -- -- 93
2018-09-22 02:00:00 17.1 0 Calma 0 Calma 0 -- -- 90
2018-09-22 01:00:00 17.4 0 Calma 0 Calma 0 -- -- 88
2018-09-22 00:00:00 18 0 Calma 2 Sudoeste 0 -- -- 86
2018-09-21 23:00:00 18.4 0 Calma 3 Sur 0 -- -- 85
2018-09-21 22:00:00 19 3 Noroeste 9 Norte 0 -- -- 82
2018-09-21 21:00:00 19.2 3 Noroeste 17 Noroeste 0 -- -- 80
2018-09-21 20:00:00 19.7 5 Noroeste 24 Norte 0 -- -- 78
2018-09-21 19:00:00 20.3 13 Norte 27 Norte 0 -- -- 76
2018-09-21 18:00:00 20.8 12 Norte 30 Norte 0 -- -- 74
2018-09-21 17:00:00 21.9 12 Norte 39 Norte 0 -- -- 68
2018-09-21 16:00:00 23.5 19 Norte 33 Norte 0 -- -- 61
2018-09-21 15:00:00 23.5 17 Norte 36 Norte 0 -- -- 58
2018-09-21 14:00:00 24.3 14 Norte 23 Norte 0 -- -- 54
2018-09-21 13:00:00 23 3 Oeste 6 Noroeste 0 -- -- 60
2018-09-21 12:00:00 18.8 2 Noroeste 5 Noroeste 0 -- -- 79
2018-09-21 11:00:00 16.7 0 Calma 3 Sudeste 0 -- -- 84
2018-09-21 10:00:00 13.8 0 Calma 4 Norte 0 -- -- 95
2018-09-21 09:00:00 12.6 0 Calma 5 Noroeste 0 -- -- 96
2018-09-21 08:00:00 12.2 0 Calma 11 Sudeste 0 -- -- 96
2018-09-21 07:00:00 12.1 2 Sur 5 Sudeste 0 -- -- 96
2018-09-21 06:00:00 12.5 0 Calma 5 Noroeste 0 -- -- 96
2018-09-21 05:00:00 12.9 0 Calma 4 Sur 0 -- -- 95
2018-09-21 04:00:00 13.6 0 Calma 4 Sur 0 -- -- 94
2018-09-21 03:00:00 14.3 2 Oeste 10 Sudoeste 0 -- -- 92
2018-09-21 02:00:00 14.8 3 Oeste 8 Sudoeste 0 -- -- 92
2018-09-21 01:00:00 15.9 0 Calma 4 Oeste 0 -- -- 90
2018-09-21 00:00:00 16.8 0 Calma 3 Oeste 0 -- -- 86
2018-09-20 23:00:00 18.1 0 Calma 5 Sudoeste 0 -- -- 82
2018-09-20 22:00:00 19.5 0 Calma 8 Sur 0 -- -- 77
2018-09-20 21:00:00 22 2 Norte 8 Este 0 -- -- 69
2018-09-20 20:00:00 24.1 6 Norte 27 Norte 0 -- -- 59
2018-09-20 19:00:00 25.1 13 Noroeste 37 Noroeste 0 -- -- 54
2018-09-20 18:00:00 26.7 14 Norte 35 Norte 0 -- -- 55
2018-09-20 17:00:00 27.6 13 Norte 29 Norte 0 -- -- 49
2018-09-20 16:00:00 28 13 Norte 34 Norte 0 -- -- 50
2018-09-20 15:00:00 27.9 10 Norte 18 Norte 0 -- -- 51
2018-09-20 14:00:00 26.2 8 Nordeste 16 Nordeste 0 -- -- 56
2018-09-20 13:00:00 24.1 5 Norte 13 Nordeste 0 -- -- 61
2018-09-20 12:00:00 21.4 4 Noroeste 12 Norte 0 -- -- 68
2018-09-20 11:00:00 19.2 0 Calma 7 Sur 0 -- -- 75
2018-09-20 10:00:00 16.6 3 Sur 9 Sur 0 -- -- 85
2018-09-20 09:00:00 16.6 3 Sur 8 Sur 0 -- -- 84
2018-09-20 08:00:00 16.7 4 Sur 11 Sudoeste 0 -- -- 84
2018-09-20 07:00:00 17.2 5 Sudeste 12 Sur 0 -- -- 83
2018-09-20 06:00:00 17.6 7 Sudeste 10 Sudeste 0 -- -- 82
2018-09-20 05:00:00 17.6 5 Sudeste 8 Sudeste 0 -- -- 83
2018-09-20 04:00:00 17.2 0 Calma 3 Oeste 0 -- -- 90
2018-09-20 03:00:00 17 0 Calma 3 Oeste 0 -- -- 90
2018-09-20 02:00:00 16.8 0 Calma 2 Sudoeste 0 -- -- 90
2018-09-20 01:00:00 16.2 0 Calma 6 Sudeste 0 -- -- 92
2018-09-20 00:00:00 16.3 3 Sudeste 8 Sudeste 0 -- -- 90
2018-09-19 23:00:00 17.3 0 Calma 4 Oeste 0 -- -- 86
2018-09-19 22:00:00 18.7 3 Sur 8 Sudoeste 0 -- -- 83
2018-09-19 21:00:00 20.5 3 Noroeste 17 Noroeste 0 -- -- 77
2018-09-19 20:00:00 21.6 9 Noroeste 24 Norte 0 -- -- 73
2018-09-19 19:00:00 23.5 14 Norte 28 Norte 0 -- -- 64
2018-09-19 18:00:00 25 9 Noroeste 29 Noroeste 0 -- -- 58
2018-09-19 17:00:00 25.4 18 Norte 33 Norte 0 -- -- 56
2018-09-19 16:00:00 25.6 14 Norte 33 Norte 0 -- -- 53
2018-09-19 15:00:00 24.7 18 Noroeste 33 Noroeste 0 -- -- 56
2018-09-19 14:00:00 23.8 14 Norte 32 Norte 0 -- -- 63
2018-09-19 13:00:00 23 11 Noroeste 23 Noroeste 0 -- -- 67
2018-09-19 12:00:00 21.3 0 Calma 0 Calma 0 -- -- 72
2018-09-19 11:00:00 19.3 0 Calma -- -- 0 -- -- 78
2018-09-19 10:00:00 18.2 0 Calma -- -- 0 -- -- 84
2018-09-19 09:00:00 17.6 0 Calma -- -- 0 -- -- 92
2018-09-19 08:00:00 17.5 0 Calma -- -- 0 -- -- 91
2018-09-19 07:00:00 17.6 0 Calma 0 Calma 0 -- -- 91
2018-09-19 06:00:00 17.4 0 Calma -- -- 0 -- -- 91
2018-09-19 05:00:00 17.3 0 Calma -- -- 0 -- -- 91
2018-09-19 04:00:00 17.1 0 Calma -- -- 0 -- -- 92
2018-09-19 03:00:00 16.7 0 Calma 0 Calma 0 -- -- 93
2018-09-19 02:00:00 16.2 0 Calma 0 Calma 0 -- -- 94
2018-09-19 01:00:00 16.3 0 Calma -- -- 0 -- -- 93
2018-09-19 00:00:00 16.4 0 Calma -- -- 0 -- -- 90
2018-09-18 23:00:00 17.4 0 Calma 7 Sudoeste 0 -- -- 87
2018-09-18 22:00:00 18.7 3 Sur 5 Sur 0 -- -- 84
2018-09-18 21:00:00 20 0 Calma 9 Noroeste 0 -- -- 79
2018-09-18 20:00:00 21.4 5 Noroeste 19 Norte 0 -- -- 73
2018-09-18 19:00:00 21.8 14 Noroeste 35 Norte 0 -- -- 72
2018-09-18 18:00:00 23.6 13 Noroeste 40 Norte 0 -- -- 66
2018-09-18 17:00:00 24.3 21 Norte 44 Norte 0 -- -- 64
2018-09-18 16:00:00 24.5 17 Norte 45 Noroeste 0 -- -- 64
2018-09-18 15:00:00 25.8 16 Norte 29 Norte 0 -- -- 59
2018-09-18 14:00:00 25.7 7 Norte 16 Este 0 -- -- 58
2018-09-18 13:00:00 24.5 6 Noroeste 12 Norte 0 -- -- 57
2018-09-18 12:00:00 22.2 0 Calma 6 Este 0 -- -- 63
2018-09-18 11:00:00 19.2 0 Calma 0 Calma 0 -- -- 74
2018-09-18 10:00:00 14.2 0 Calma -- -- 0 -- -- 96
2018-09-18 09:00:00 12.9 0 Calma -- -- 0 -- -- 95
2018-09-18 08:00:00 13.4 0 Calma 0 Calma 0 -- -- 94
2018-09-18 07:00:00 13.7 0 Calma 3 Sudeste 0 -- -- 93
2018-09-18 06:00:00 -- 3 Este 4 Este 0 -- -- 92
2018-09-18 05:00:00 15.5 0 Calma 4 Sur 0 -- -- 90
2018-09-18 04:00:00 15.6 0 Calma 7 Sur 0 -- -- 89
2018-09-18 03:00:00 15.9 0 Calma 5 Noroeste 0 -- -- 88
2018-09-18 02:00:00 17.2 0 Calma 6 Oeste 0 -- -- 81
2018-09-18 01:00:00 17.5 0 Calma 5 Sudoeste 0 -- -- 76
2018-09-18 00:00:00 18 0 Calma 14 Sur 0 -- -- 72
2018-09-17 23:00:00 19.9 2 Sur 11 Sudeste 0 -- -- 67
2018-09-17 22:00:00 21.8 7 Sur 20 Norte 0 -- -- 57
2018-09-17 21:00:00 24.1 12 Norte 31 Noroeste 0 -- -- 42
2018-09-17 20:00:00 25.5 11 Norte 29 Norte 0 -- -- 44
2018-09-17 19:00:00 28.7 10 Norte 22 Noroeste 0 -- -- 39
2018-09-17 18:00:00 30.4 13 Norte 36 Norte 0 -- -- 33
2018-09-17 17:00:00 31.1 14 Norte 34 Noroeste 0 -- -- 34
2018-09-17 16:00:00 33.4 11 Norte 23 Norte 0 -- -- 34
2018-09-17 15:00:00 33.6 5 Sur 15 Sur 0 -- -- 30
2018-09-17 14:00:00 32.6 3 Sur 8 Sur 0 -- -- 33
2018-09-17 13:00:00 28 2 Norte 5 Sudoeste 0 -- -- 48
2018-09-17 12:00:00 23.5 0 Calma 5 Oeste 0 -- -- 63
2018-09-17 11:00:00 19.6 0 Calma 6 Sudeste 0 -- -- 75
2018-09-17 10:00:00 15.2 0 Calma 5 Este 0 -- -- 95
2018-09-17 09:00:00 14.1 0 Calma 11 Sudeste 0 -- -- 92
2018-09-17 08:00:00 14.6 6 Sudeste 12 Sudeste 0 -- -- 92
2018-09-17 07:00:00 15.3 8 Sudeste 13 Sudeste 0 -- -- 92
2018-09-17 06:00:00 16.2 4 Sudeste 12 Sur 0 -- -- 90
2018-09-17 05:00:00 17.1 5 Sur 12 Sudoeste 0 -- -- 89
2018-09-17 04:00:00 17.6 2 Sudoeste 13 Sur 0 -- -- 88
2018-09-17 03:00:00 18.2 3 Sur 7 Sur 0 -- -- 88
2018-09-17 02:00:00 17.8 2 Sur 5 Sur 0 -- -- 92
2018-09-17 01:00:00 17.4 0 Calma 4 Nordeste 0 -- -- 92
2018-09-17 00:00:00 17 0 Calma 3 Sur 0 -- -- 91
2018-09-16 23:00:00 17.3 2 Sudeste 4 Sur 0 -- -- 90
2018-09-16 22:00:00 18.1 0 Calma 6 Noroeste 0 -- -- 87
2018-09-16 21:00:00 19.1 5 Noroeste 15 Noroeste 0 -- -- 84
2018-09-16 20:00:00 20.1 4 Noroeste 14 Norte 0 -- -- 80
2018-09-16 19:00:00 20.4 4 Norte 39 Norte 0 -- -- 79
2018-09-16 18:00:00 20.4 21 Noroeste 41 Norte 0 -- -- 79
2018-09-16 17:00:00 21.9 11 Noroeste 38 Norte 0 -- -- 75
2018-09-16 16:00:00 23.2 9 Noroeste 26 Noroeste 0 -- -- 71
2018-09-16 15:00:00 23.3 10 Norte 30 Norte 0 -- -- 72
2018-09-16 14:00:00 21.9 14 Norte 40 Norte 0 -- -- 75
2018-09-16 13:00:00 21.6 23 Norte 40 Noroeste 0 -- -- 75
2018-09-16 12:00:00 21.6 12 Norte 22 Nordeste 0 -- -- 78
2018-09-16 11:00:00 19.2 0 Calma 4 Sur 0 -- -- 84
2018-09-16 10:00:00 15.3 0 Calma 3 Este 0 -- -- 97
2018-09-16 09:00:00 13.6 0 Calma -- -- 0 -- -- 98
2018-09-16 08:00:00 13.3 0 Calma 3 Sudeste 0 -- -- 97
2018-09-16 07:00:00 13.4 0 Calma 4 Noroeste 0 -- -- 97
2018-09-16 06:00:00 13.8 0 Calma 3 Sudeste 0 -- -- 96
2018-09-16 05:00:00 14.3 0 Calma 3 Oeste 0 -- -- 96
2018-09-16 04:00:00 14.9 0 Calma 3 Noroeste 0 -- -- 95
2018-09-16 03:00:00 15.6 0 Calma 4 Noroeste 0 -- -- 95
2018-09-16 02:00:00 16.1 0 Calma 3 Sudoeste 0 -- -- 94
2018-09-16 01:00:00 16.8 2 Sur 4 Sudeste 0 -- -- 93
2018-09-16 00:00:00 17.6 0 Calma 2 Sudeste 0 -- -- 91
2018-09-15 23:00:00 18.3 0 Calma 5 Sudoeste 0 -- -- 89
2018-09-15 22:00:00 19.6 0 Calma 5 Oeste 0 -- -- 85
2018-09-15 21:00:00 21.6 6 Nordeste 13 Nordeste 0 -- -- 77
2018-09-15 20:00:00 23.2 4 Noroeste 20 Noroeste 0 -- -- 71
2018-09-15 19:00:00 25.5 7 Noroeste 27 Noroeste 0 -- -- 64
2018-09-15 18:00:00 26 13 Norte 25 Noroeste 0 -- -- 62
2018-09-15 17:00:00 26.4 10 Norte 23 Norte 0 -- -- 62
2018-09-15 16:00:00 26.8 8 Norte 24 Noroeste 0 -- -- 60
2018-09-15 15:00:00 26.3 10 Norte 23 Norte 0 -- -- 60
2018-09-15 14:00:00 25.7 7 Norte 16 Noroeste 0 -- -- 59
2018-09-15 13:00:00 23.9 5 Noroeste 10 Noroeste 0 -- -- 62
2018-09-15 12:00:00 22.6 2 Sur 8 Sudeste 0 -- -- 67
2018-09-15 11:00:00 20.3 2 Este 4 Sudeste 0 -- -- 73
2018-09-15 10:00:00 18.6 3 Sudeste 9 Sur 0 -- -- 78
2018-09-15 09:00:00 17.5 2 Este 5 Sudeste 0 -- -- 88
2018-09-15 08:00:00 17.1 0 Calma 2 Oeste 0 -- -- 92
2018-09-15 07:00:00 17.4 0 Calma 2 Noroeste 0 -- -- 92
2018-09-15 06:00:00 17.7 0 Calma 2 Sudoeste 0 -- -- 90
2018-09-15 05:00:00 17.9 0 Calma 2 Oeste 0 -- -- 89
2018-09-15 04:00:00 18 0 Calma -- -- 0 -- -- 89
2018-09-15 03:00:00 18 0 Calma 3 Noroeste 0 -- -- 87
2018-09-15 02:00:00 18.3 0 Calma 5 Norte 0 -- -- 86
2018-09-15 01:00:00 18.6 0 Calma 5 Este 0 -- -- 82
2018-09-15 00:00:00 18.9 3 Sudeste 11 Sur 0 -- -- 80
2018-09-14 23:00:00 19 6 Sur 13 Sur 0 -- -- 80
2018-09-14 22:00:00 19.3 5 Este 16 Noroeste 0 -- -- 78
2018-09-14 21:00:00 19.4 6 Norte 22 Norte 0 -- -- 73
2018-09-14 20:00:00 19.3 10 Norte 25 Noroeste 0 -- -- 74
2018-09-14 19:00:00 19.6 12 Norte 35 Noroeste 0 -- -- 76
2018-09-14 18:00:00 20.3 14 Noroeste 40 Noroeste 0 -- -- 78
2018-09-14 17:00:00 21.5 19 Noroeste 45 Norte 0 -- -- 75
2018-09-14 16:00:00 22.8 14 Noroeste 39 Noroeste 0 -- -- 71
2018-09-14 15:00:00 23.9 15 Norte 33 Norte 0 -- -- 65
2018-09-14 14:00:00 24.7 9 Norte 22 Norte 0 -- -- 60
2018-09-14 13:00:00 23.9 9 Norte 17 Norte 0 -- -- 62
2018-09-14 12:00:00 23 3 Sudoeste 5 Sudoeste 0 -- -- 65
2018-09-14 11:00:00 21.9 0 Calma 6 Oeste 0 -- -- 71
2018-09-14 10:00:00 18.9 0 Calma 3 Noroeste 0 -- -- 85
2018-09-14 09:00:00 17.8 0 Calma 3 Sudoeste 0 -- -- 91
2018-09-14 08:00:00 17.6 0 Calma 3 Sudoeste 0 -- -- 90
2018-09-14 07:00:00 17.7 0 Calma -- -- 0 -- -- 90
2018-09-14 06:00:00 17.9 0 Calma 3 Noroeste 0 -- -- 88
2018-09-14 05:00:00 18 0 Calma 4 Sudoeste 0 -- -- 87
2018-09-14 04:00:00 18.3 0 Calma 3 Sudoeste 0 -- -- 84
2018-09-14 03:00:00 18.6 0 Calma 4 Sudoeste 0 -- -- 84
2018-09-14 02:00:00 19 3 Sudoeste 6 Sudoeste 0 -- -- 80
2018-09-14 01:00:00 19.6 0 Calma 7 Noroeste 0 -- -- 77
2018-09-14 00:00:00 19.8 3 Noroeste 13 Noroeste 0 -- -- 74
2018-09-13 23:00:00 20.1 5 Noroeste 15 Norte 0 -- -- 73
2018-09-13 22:00:00 20.5 7 Norte 24 Norte 0 -- -- 71
2018-09-13 21:00:00 20.9 11 Noroeste 26 Noroeste 0 -- -- 70
2018-09-13 20:00:00 21.4 9 Noroeste 23 Noroeste 0 -- -- 69
2018-09-13 19:00:00 22.1 14 Norte 31 Noroeste 0 -- -- 66
2018-09-13 18:00:00 23.2 14 Norte 38 Norte 0 -- -- 63
2018-09-13 17:00:00 23.5 17 Norte 35 Norte 0 -- -- 62
2018-09-13 16:00:00 24 14 Norte 33 Noroeste 0 -- -- 59
2018-09-13 15:00:00 23.8 17 Norte 34 Norte 0 -- -- 60
2018-09-13 14:00:00 24.1 11 Norte 21 Norte 0 -- -- 61
2018-09-13 13:00:00 23.9 8 Norte 15 Norte 0 -- -- 60
2018-09-13 12:00:00 22.5 3 Nordeste 10 Sur 0 -- -- 65
2018-09-13 11:00:00 20.8 2 Oeste 6 Oeste 0 -- -- 77
2018-09-13 10:00:00 19.4 0 Calma 3 Este 0 -- -- 85
2018-09-13 09:00:00 18.6 0 Calma 3 Oeste 0 -- -- 90
2018-09-13 08:00:00 18.4 0 Calma 3 Oeste 0 -- -- 90
2018-09-13 07:00:00 18.6 0 Calma 4 Sudoeste 0 -- -- 90
2018-09-13 06:00:00 18.8 0 Calma 5 Sudoeste 0 -- -- 88
2018-09-13 05:00:00 19 0 Calma 2 Sur 0 -- -- 87
2018-09-13 04:00:00 19.1 0 Calma 3 Norte 0 -- -- 88
2018-09-13 03:00:00 19.3 0 Calma 5 Nordeste 0 -- -- 87
2018-09-13 02:00:00 19.6 0 Calma 4 Nordeste 0 -- -- 87
2018-09-13 01:00:00 19.9 2 Norte 6 Norte 0 -- -- 84
2018-09-13 00:00:00 20.2 2 Noroeste 7 Nordeste 0 -- -- 83
2018-09-12 23:00:00 20.5 3 Norte 6 Noroeste 0 -- -- 82
2018-09-12 22:00:00 20.8 2 Norte 8 Norte 0 -- -- 79
2018-09-12 21:00:00 21.1 5 Norte 24 Norte 0 -- -- 78
2018-09-12 20:00:00 21.5 9 Norte 21 Norte 0 -- -- 75
2018-09-12 19:00:00 21.9 12 Noroeste 39 Noroeste 0 -- -- 75
2018-09-12 18:00:00 22.3 19 Noroeste 43 Norte 0 -- -- 74
2018-09-12 17:00:00 23.3 14 Norte 37 Norte 0 -- -- 71
2018-09-12 16:00:00 24.2 16 Norte 45 Norte 0 -- -- 71
2018-09-12 15:00:00 24.8 22 Norte 40 Norte 0 -- -- 67
2018-09-12 14:00:00 25.4 13 Norte 28 Norte 0 -- -- 65
2018-09-12 13:00:00 25.1 6 Nordeste 14 Norte 0 -- -- 62
2018-09-12 12:00:00 23.1 0 Calma 0 Calma 0 -- -- 66
2018-09-12 11:00:00 19.5 0 Calma 0 Calma 0 -- -- 75
2018-09-12 10:00:00 15.2 0 Calma -- -- 0 -- -- 97
2018-09-12 09:00:00 12.9 0 Calma -- -- 0 -- -- 97
2018-09-12 08:00:00 12.9 0 Calma -- -- 0 -- -- 96
2018-09-12 07:00:00 13.4 0 Calma -- -- 0 -- -- 95
2018-09-12 06:00:00 13.9 0 Calma -- -- 0 -- -- 95
2018-09-12 05:00:00 14.5 0 Calma -- -- 0 -- -- 94
2018-09-12 04:00:00 15.3 0 Calma 0 Calma 0 -- -- 94
2018-09-12 03:00:00 15.7 0 Calma -- -- 0 -- -- 93
2018-09-12 02:00:00 16.5 0 Calma -- -- 0 -- -- 92
2018-09-12 01:00:00 17.4 0 Calma 4 Oeste 0 -- -- 90
2018-09-12 00:00:00 18 0 Calma 9 Noroeste 0 -- -- 87
2018-09-11 23:00:00 18.7 4 Noroeste 9 Noroeste 0 -- -- 85
2018-09-11 22:00:00 20 0 Calma 5 Oeste 0 -- -- 81
2018-09-11 21:00:00 21.7 3 Noroeste 9 Oeste 0 -- -- 73
2018-09-11 20:00:00 25.2 0 Calma 14 Norte 0 -- -- 58
2018-09-11 19:00:00 27.7 12 Norte 28 Norte 0 -- -- 46
2018-09-11 18:00:00 29.3 12 Norte 26 Norte 0 -- -- 44
2018-09-11 17:00:00 29.7 13 Norte 27 Norte 0 -- -- 39
2018-09-11 16:00:00 29.8 14 Norte 31 Norte 0 -- -- 39
2018-09-11 15:00:00 29.7 13 Norte 26 Norte 0 -- -- 41
2018-09-11 14:00:00 28.3 7 Norte 13 Nordeste 0 -- -- 45
2018-09-11 13:00:00 25.5 3 Noroeste 6 Oeste 0 -- -- 58
2018-09-11 12:00:00 22.2 0 Calma 5 Nordeste 0 -- -- 65
2018-09-11 11:00:00 18.7 2 Nordeste 5 Nordeste 0 -- -- 78
2018-09-11 10:00:00 15.3 2 Sudeste 4 Sudeste 0 -- -- 91
2018-09-11 09:00:00 13.3 2 Sudeste 6 Sudeste 0 -- -- 95
2018-09-11 08:00:00 13.5 0 Calma 7 Sudeste 0 -- -- 95
2018-09-11 07:00:00 14.1 5 Sudeste 8 Sudeste 0 -- -- 95
2018-09-11 06:00:00 14.5 2 Sudeste 9 Sudeste 0 -- -- 94
2018-09-11 05:00:00 15 0 Calma 10 Sudeste 0 -- -- 93
2018-09-11 04:00:00 16.4 8 Sudeste 13 Sur 0 -- -- 91
2018-09-11 03:00:00 17.2 0 Calma 0 Calma 0 -- -- 91
2018-09-11 02:00:00 17.4 0 Calma 0 Calma 0 -- -- 93
2018-09-11 01:00:00 16.8 0 Calma -- -- 0 -- -- 94
2018-09-11 00:00:00 17.1 0 Calma 0 Calma 0 -- -- 92
2018-09-10 23:00:00 18.1 0 Calma 5 Sur 0 -- -- 90
2018-09-10 22:00:00 19.5 0 Calma 4 Norte 0 -- -- 86
2018-09-10 21:00:00 20.7 2 Noroeste 18 Noroeste 0 -- -- 81
2018-09-10 20:00:00 21.9 7 Norte 30 Norte 0 -- -- 76
2018-09-10 19:00:00 24.1 13 Norte 34 Norte 0 -- -- 71
2018-09-10 18:00:00 25.9 10 Noroeste 23 Norte 0 -- -- 66
2018-09-10 17:00:00 26.4 8 Norte 21 Norte 0 -- -- 62
2018-09-10 16:00:00 26.1 12 Noroeste 27 Noroeste 0 -- -- 62
2018-09-10 15:00:00 25.8 6 Norte 15 Nordeste 0 -- -- 61
2018-09-10 14:00:00 24.3 3 Este 9 Noroeste 0 -- -- 62
2018-09-10 13:00:00 22.5 3 Oeste 6 Este 0 -- -- 67
2018-09-10 12:00:00 19.7 2 Sur 8 Sur 0 -- -- 77
2018-09-10 11:00:00 17 2 Noroeste 8 Sudeste 0 -- -- 86
2018-09-10 10:00:00 16.1 5 Sudeste 12 Sudeste 0 -- -- 87
2018-09-10 09:00:00 15.7 4 Sur 11 Sudeste 0 -- -- 89
2018-09-10 08:00:00 15.8 6 Sudeste 13 Sudeste 0 -- -- 89
2018-09-10 07:00:00 15.9 5 Sudeste 12 Sudeste 0 -- -- 90
2018-09-10 06:00:00 15.9 4 Sudeste 7 Sudeste 0 -- -- 96
2018-09-10 05:00:00 15.7 0 Calma 6 Sudeste 0 -- -- 97
2018-09-10 04:00:00 15.5 0 Calma 3 Sur 0 -- -- 97
2018-09-10 03:00:00 15.5 0 Calma 5 Sudoeste 0 -- -- 96
2018-09-10 02:00:00 16.2 0 Calma 6 Sudoeste 0 -- -- 95
2018-09-10 01:00:00 17.1 0 Calma 10 Sur 0 -- -- 94
2018-09-10 00:00:00 17.6 6 Sudeste 9 Sudeste 0 -- -- 93
2018-09-09 23:00:00 17.7 3 Sudeste 8 Sur 0 -- -- 93
2018-09-09 22:00:00 18.1 0 Calma 5 Sudoeste 0 -- -- 91
2018-09-09 21:00:00 19 0 Calma 9 Norte 0 -- -- 88
2018-09-09 20:00:00 20.6 7 Norte 22 Norte 0 -- -- 78
2018-09-09 19:00:00 21.3 0 Calma 0 Calma 0 -- -- 77
2018-09-09 18:00:00 21.1 0 Calma 0 Calma 0 -- -- 82
2018-09-09 17:00:00 20.8 0 Calma 0 Calma 0 -- -- 83
2018-09-09 16:00:00 18.8 0 Calma 0 Calma 0.4 -- -- 90
2018-09-09 15:00:00 17.5 0 Calma -- -- 1.6 -- -- 93
2018-09-09 14:00:00 17.2 0 Calma -- -- 2.4 -- -- 92
2018-09-09 13:00:00 17 0 Calma -- -- 0.8 -- -- 92
2018-09-09 12:00:00 16.8 0 Calma -- -- 0 -- -- 90
2018-09-09 11:00:00 16.3 0 Calma 0 Calma 0 -- -- 92
2018-09-09 10:00:00 15.2 0 Calma -- -- 0 -- -- 96
2018-09-09 09:00:00 14.7 0 Calma -- -- 0 -- -- 96
2018-09-09 08:00:00 14.7 0 Calma 0 Calma 0 -- -- 97
2018-09-09 07:00:00 14.5 0 Calma -- -- 0 -- -- 97
2018-09-09 06:00:00 14.4 0 Calma 5 Noroeste 0 -- -- 97
2018-09-09 05:00:00 14.7 3 Sudeste 4 Sudeste 0 -- -- 97
2018-09-09 04:00:00 14.6 0 Calma 5 Sudeste 0 -- -- 96
2018-09-09 03:00:00 15.1 2 Sur 6 Oeste 0 -- -- 96
2018-09-09 02:00:00 15.5 0 Calma 4 Sudeste 0 -- -- 95
2018-09-09 01:00:00 16 2 Sur 5 Oeste 0 -- -- 95
2018-09-09 00:00:00 16.6 0 Calma 5 Sudoeste 0 -- -- 94
2018-09-08 23:00:00 17.6 0 Calma 5 Sudoeste 0 -- -- 92
2018-09-08 22:00:00 18.3 3 Sudeste 8 Este 1.8 -- -- 92
2018-09-08 21:00:00 19.3 3 Oeste 22 Sur 6.8 -- -- 87
2018-09-08 20:00:00 23.1 6 Sur 16 Sur 0 -- -- 61
2018-09-08 19:00:00 24.8 5 Noroeste 27 Nordeste 0 -- -- 51
2018-09-08 18:00:00 25.2 12 Norte 31 Noroeste 0 -- -- 53
2018-09-08 17:00:00 26.4 11 Noroeste 29 Noroeste 0 -- -- 52
2018-09-08 16:00:00 27.7 14 Norte 26 Norte 0 -- -- 49
2018-09-08 15:00:00 27.4 13 Norte 26 Norte 0 -- -- 50
2018-09-08 14:00:00 26.4 9 Norte 18 Noroeste 0 -- -- 53
2018-09-08 13:00:00 24.5 6 Nordeste 10 Nordeste 0 -- -- 54
2018-09-08 12:00:00 21.4 4 Nordeste 7 Nordeste 0 -- -- 65
2018-09-08 11:00:00 18.3 0 Calma 5 Este 0 -- -- 78
2018-09-08 10:00:00 14.4 0 Calma 3 Nordeste 0 -- -- 95
2018-09-08 09:00:00 12.5 0 Calma 4 Sudoeste 0 -- -- 97
2018-09-08 08:00:00 11.9 3 Noroeste 7 Noroeste 0 -- -- 97
2018-09-08 07:00:00 12.3 0 Calma 4 Oeste 0 -- -- 97
2018-09-08 06:00:00 12.7 0 Calma 4 Noroeste 0 -- -- 96
2018-09-08 05:00:00 13.2 0 Calma 4 Sudeste 0 -- -- 96
2018-09-08 04:00:00 13.8 0 Calma 5 Noroeste 0 -- -- 95
2018-09-08 03:00:00 14.5 3 Sudeste 5 Sudeste 0 -- -- 93
2018-09-08 02:00:00 15.3 0 Calma 4 Sur 0 -- -- 92
2018-09-08 01:00:00 16.3 0 Calma 3 Sur 0 -- -- 90
2018-09-08 00:00:00 17.5 0 Calma 3 Sudoeste 0 -- -- 87
2018-09-07 23:00:00 18 0 Calma 5 Sur 0 -- -- 83
2018-09-07 22:00:00 18.4 2 Sudoeste 15 Norte 0 -- -- 80
2018-09-07 21:00:00 19.1 6 Noroeste 15 Norte 0 -- -- 75
2018-09-07 20:00:00 19.6 6 Norte 24 Norte 0 -- -- 73
2018-09-07 19:00:00 20.6 10 Norte 27 Norte 0 -- -- 71
2018-09-07 18:00:00 21.5 15 Norte 31 Norte 0 -- -- 68
2018-09-07 17:00:00 21.7 15 Norte 37 Noroeste 0 -- -- 66
2018-09-07 16:00:00 23 13 Norte 30 Noroeste 0 -- -- 62
2018-09-07 15:00:00 22.9 13 Norte 27 Noroeste 0 -- -- 60
2018-09-07 14:00:00 22 10 Norte 27 Norte 0 -- -- 63
2018-09-07 13:00:00 21.5 7 Norte 14 Norte 0 -- -- 62
2018-09-07 12:00:00 20.3 0 Calma 8 Oeste 0 -- -- 66
2018-09-07 11:00:00 19 2 Sudeste 5 Este 0 -- -- 77
2018-09-07 10:00:00 16.8 3 Sur 8 Sudeste 0 -- -- 88
2018-09-07 09:00:00 15.4 5 Sudeste 10 Sudeste 0 -- -- 92
2018-09-07 08:00:00 15.2 0 Calma 3 Oeste 0 -- -- 96
2018-09-07 07:00:00 15.2 0 Calma 4 Sur 0 -- -- 96
2018-09-07 06:00:00 15.2 0 Calma 6 Noroeste 0 -- -- 95
2018-09-07 05:00:00 15.6 0 Calma 4 Oeste 0 -- -- 96
2018-09-07 04:00:00 16.2 2 Sudoeste 4 Sudoeste 0 -- -- 96
2018-09-07 03:00:00 16.3 0 Calma 5 Oeste 0 -- -- 96
2018-09-07 02:00:00 16.4 2 Oeste 5 Oeste 0 -- -- 95
2018-09-07 01:00:00 16.6 3 Sudeste 5 Sur 0.4 -- -- 95
2018-09-07 00:00:00 16.8 2 Sur 4 Sur 1 -- -- 93
2018-09-06 23:00:00 17.1 0 Calma 12 Este 1 -- -- 91
2018-09-06 22:00:00 17.9 3 Nordeste 9 Noroeste 0 -- -- 82
2018-09-06 21:00:00 18.2 4 Norte 17 Nordeste 0 -- -- 79
2018-09-06 20:00:00 18.1 7 Norte 18 Norte 0 -- -- 81
2018-09-06 19:00:00 19.4 10 Norte 23 Norte 0 -- -- 72
2018-09-06 18:00:00 19 12 Noroeste 27 Nordeste 0 -- -- 76
2018-09-06 17:00:00 19.6 10 Noroeste 26 Noroeste 0 -- -- 76
2018-09-06 16:00:00 20.8 11 Noroeste 28 Nordeste 0 -- -- 69
2018-09-06 15:00:00 20.6 8 Norte 22 Norte 0 -- -- 68
2018-09-06 14:00:00 19.6 10 Norte 23 Noroeste 0 -- -- 73
2018-09-06 13:00:00 21 10 Norte 29 Norte 0 -- -- 64
2018-09-06 12:00:00 20.8 3 Noroeste 9 Norte 0 -- -- 71
2018-09-06 11:00:00 19 0 Calma 4 Noroeste 0 -- -- 86
2018-09-06 10:00:00 17.4 0 Calma 3 Sur 0 -- -- 92
2018-09-06 09:00:00 16.2 0 Calma 3 Oeste 0 -- -- 97
2018-09-06 08:00:00 15.9 0 Calma 3 Noroeste 0 -- -- 97
2018-09-06 07:00:00 16 0 Calma 2 Oeste 0 -- -- 96
2018-09-06 06:00:00 16.1 0 Calma 3 Sudoeste 0 -- -- 96
2018-09-06 05:00:00 16.3 0 Calma 3 Oeste 0 -- -- 96
2018-09-06 04:00:00 16.4 0 Calma 4 Sudeste 0 -- -- 96
2018-09-06 03:00:00 16.4 4 Sudeste 6 Sur 0.2 -- -- 96
2018-09-06 02:00:00 16.4 0 Calma 2 Sudeste 0.2 -- -- 95
2018-09-06 01:00:00 16.3 0 Calma 2 Noroeste 0 -- -- 94
2018-09-06 00:00:00 16.5 0 Calma 4 Sur 0 -- -- 93
2018-09-05 23:00:00 16.7 3 Sudoeste 8 Oeste 0.4 -- -- 91
2018-09-05 22:00:00 17.5 3 Oeste 14 Nordeste 0.6 -- -- 86
2018-09-05 21:00:00 18.8 6 Norte 18 Norte 0 -- -- 75
2018-09-05 20:00:00 19 9 Norte 21 Norte 0 -- -- 77
2018-09-05 19:00:00 20.7 5 Noroeste 17 Norte 0 -- -- 72
2018-09-05 18:00:00 21 8 Norte 15 Norte 0 -- -- 71
2018-09-05 17:00:00 21 8 Norte 16 Norte 0 -- -- 70
2018-09-05 16:00:00 21.7 3 Nordeste 12 Oeste 0 -- -- 69
2018-09-05 15:00:00 20.4 5 Norte 13 Sudeste 0 -- -- 79
2018-09-05 14:00:00 17.2 3 Nordeste 8 Este 0.2 -- -- 93
2018-09-05 13:00:00 16.2 2 Este 10 Sudeste 2.4 -- -- 95
2018-09-05 12:00:00 16.4 4 Sur 7 Sur 1 -- -- 92
2018-09-05 11:00:00 16 3 Oeste 4 Norte 0 -- -- 92
2018-09-05 10:00:00 15.2 0 Calma 9 Sur 0 -- -- 95
2018-09-05 09:00:00 14 3 Oeste 9 Norte 3.2 -- -- 96
2018-09-05 08:00:00 13.7 2 Oeste 8 Noroeste 0.4 -- -- 94
2018-09-05 07:00:00 13 0 Calma 2 Norte 0 -- -- 95
2018-09-05 06:00:00 12.6 0 Calma 4 Noroeste 0 -- -- 94
2018-09-05 05:00:00 13.4 0 Calma -- -- 0 -- -- 93
2018-09-05 04:00:00 14 0 Calma -- -- 0 -- -- 92
2018-09-05 03:00:00 14.4 0 Calma -- -- 0 -- -- 91
2018-09-05 02:00:00 15.4 0 Calma -- -- 0 -- -- 88
2018-09-05 01:00:00 16.4 0 Calma 2 Norte 0 -- -- 85
2018-09-05 00:00:00 18.1 0 Calma 3 Sudoeste 0 -- -- 79
2018-09-04 23:00:00 19.6 0 Calma 7 Norte 0 -- -- 74
2018-09-04 22:00:00 20.5 4 Norte 19 Norte 0 -- -- 71
2018-09-04 21:00:00 20.8 9 Norte 22 Norte 0 -- -- 67
2018-09-04 20:00:00 21.2 5 Norte 21 Norte 0 -- -- 61
2018-09-04 19:00:00 21.8 6 Norte 30 Norte 0 -- -- 63
2018-09-04 18:00:00 23.2 13 Norte 28 Noroeste 0 -- -- 62
2018-09-04 17:00:00 23.1 12 Norte 30 Noroeste 0 -- -- 61
2018-09-04 16:00:00 23.1 13 Noroeste 35 Norte 0 -- -- 58
2018-09-04 15:00:00 23 15 Norte 32 Norte 0 -- -- 58
2018-09-04 14:00:00 24.7 11 Norte 22 Norte 0 -- -- 47
2018-09-04 13:00:00 23.4 4 Sur 8 Sudeste 0 -- -- 50
2018-09-04 12:00:00 21.1 3 Norte 6 Norte 0 -- -- 57
2018-09-04 11:00:00 17.3 2 Sur 6 Sudeste 0 -- -- 70
2018-09-04 10:00:00 14.1 2 Norte 4 Noroeste 0 -- -- 88
2018-09-04 09:00:00 12.6 0 Calma 4 Noroeste 0 -- -- 95
2018-09-04 08:00:00 12 0 Calma 4 Este 0 -- -- 95
2018-09-04 07:00:00 11.7 0 Calma 3 Noroeste 0 -- -- 96
2018-09-04 06:00:00 11.5 0 Calma 2 Sudeste 0 -- -- 95
2018-09-04 05:00:00 11.8 0 Calma 3 Este 0 -- -- 94
2018-09-04 04:00:00 12.6 0 Calma 3 Noroeste 0 -- -- 92
2018-09-04 03:00:00 13.4 0 Calma 4 Este 0 -- -- 91
2018-09-04 02:00:00 13.8 0 Calma 6 Sudeste 0 -- -- 90
2018-09-04 01:00:00 14.6 3 Sur 6 Sur 0 -- -- 87
2018-09-04 00:00:00 15.7 0 Calma 5 Oeste 0 -- -- 81
2018-09-03 23:00:00 17.7 3 Sudoeste 8 Oeste 0 -- -- 72
2018-09-03 22:00:00 20 3 Nordeste 23 Noroeste 0 -- -- 66
2018-09-03 21:00:00 20.6 12 Norte 31 Noroeste 0 -- -- 68
2018-09-03 20:00:00 21.5 16 Norte 32 Norte 0 -- -- 66
2018-09-03 19:00:00 22.4 11 Noroeste 29 Noroeste 0 -- -- 64
2018-09-03 18:00:00 23.3 18 Norte 32 Norte 0 -- -- 60
2018-09-03 17:00:00 24 14 Noroeste 32 Noroeste 0 -- -- 55
2018-09-03 16:00:00 25 14 Norte 32 Noroeste 0 -- -- 49
2018-09-03 15:00:00 24.8 14 Norte 35 Norte 0 -- -- 50
2018-09-03 14:00:00 25.8 12 Norte 24 Norte 0 -- -- 41
2018-09-03 13:00:00 26.1 5 Noroeste 15 Norte 0 -- -- 42
2018-09-03 12:00:00 24.3 2 Sur 9 Noroeste 0 -- -- 55
2018-09-03 11:00:00 20.3 2 Sudoeste 4 Sur 0 -- -- 72
2018-09-03 10:00:00 16.7 0 Calma 3 Sudeste 0 -- -- 86
2018-09-03 09:00:00 14 2 Este 5 Sudeste 0 -- -- 96
2018-09-03 08:00:00 13.8 2 Noroeste 5 Noroeste 0 -- -- 94
2018-09-03 07:00:00 14 0 Calma 3 Oeste 0 -- -- 95
2018-09-03 06:00:00 13.8 0 Calma 3 Noroeste 0 -- -- 95
2018-09-03 05:00:00 14.1 0 Calma 2 Sudeste 0 -- -- 93
2018-09-03 04:00:00 14.6 0 Calma 4 Oeste 0 -- -- 91
2018-09-03 03:00:00 15.1 0 Calma 2 Oeste 0 -- -- 91
2018-09-03 02:00:00 15.9 0 Calma 3 Sudeste 0 -- -- 88
2018-09-03 01:00:00 16.9 0 Calma 4 Sudoeste 0 -- -- 85
2018-09-03 00:00:00 17.9 0 Calma 4 Oeste 0 -- -- 81
2018-09-02 23:00:00 19.4 3 Sudoeste 6 Norte 0 -- -- 75
2018-09-02 22:00:00 21.6 3 Norte 13 Noroeste 0 -- -- 65
2018-09-02 21:00:00 23.7 5 Noroeste 20 Este 0 -- -- 60
2018-09-02 20:00:00 25.7 10 Norte 37 Norte 0 -- -- 54
2018-09-02 19:00:00 27.9 17 Norte 36 Noroeste 0 -- -- 49
2018-09-02 18:00:00 29.2 15 Norte 33 Norte 0 -- -- 47
2018-09-02 17:00:00 30.4 16 Norte 33 Norte 0 -- -- 43
2018-09-02 16:00:00 30.9 16 Norte 33 Norte 0 -- -- 43
2018-09-02 15:00:00 30.8 13 Noroeste 29 Norte 0 -- -- 42
2018-09-02 14:00:00 29.9 9 Noroeste 19 Norte 0 -- -- 47
2018-09-02 13:00:00 28.1 5 Nordeste 12 Nordeste 0 -- -- 50
2018-09-02 12:00:00 24.9 0 Calma 0 Calma 0 -- -- 62
2018-09-02 11:00:00 21.5 0 Calma 0 Calma 0 -- -- 73
2018-09-02 10:00:00 17.5 0 Calma -- -- 0 -- -- 90
2018-09-02 09:00:00 14.3 0 Calma -- -- 0 -- -- 97
2018-09-02 08:00:00 14 0 Calma -- -- 0 -- -- 96
2018-09-02 07:00:00 14.1 0 Calma -- -- 0 -- -- 96
2018-09-02 06:00:00 14.5 0 Calma -- -- 0 -- -- 95
2018-09-02 05:00:00 15.1 0 Calma -- -- 0 -- -- 95
2018-09-02 04:00:00 15.6 0 Calma -- -- 0 -- -- 94
2018-09-02 03:00:00 16.2 0 Calma -- -- 0 -- -- 93
2018-09-02 02:00:00 16.8 0 Calma -- -- 0 -- -- 91
2018-09-02 01:00:00 17.7 0 Calma -- -- 0 -- -- 90
2018-09-02 00:00:00 18.5 0 Calma 2 Oeste 0 -- -- 87
2018-09-01 23:00:00 19.7 0 Calma 3 Sudoeste 0 -- -- 85
2018-09-01 22:00:00 21.2 0 Calma 4 Noroeste 0 -- -- 80
2018-09-01 21:00:00 23.4 5 Noroeste 21 Norte 0 -- -- 72
2018-09-01 20:00:00 24.4 12 Norte 27 Norte 0 -- -- 70
2018-09-01 19:00:00 26.1 10 Norte 30 Noroeste 0 -- -- 64
2018-09-01 18:00:00 27.3 12 Norte 33 Norte 0 -- -- 61
2018-09-01 17:00:00 28.3 12 Norte 29 Norte 0 -- -- 56
2018-09-01 16:00:00 28.1 14 Noroeste 29 Noroeste 0 -- -- 54
2018-09-01 15:00:00 28.3 14 Norte 25 Norte 0 -- -- 52
2018-09-01 14:00:00 27.6 7 Norte 15 Este 0 -- -- 52
2018-09-01 13:00:00 25.9 6 Norte 12 Norte 0 -- -- 55
2018-09-01 12:00:00 23 2 Noroeste 5 Sudoeste 0 -- -- 64
2018-09-01 11:00:00 19.3 0 Calma 4 Este 0 -- -- 75
2018-09-01 10:00:00 15.4 0 Calma 3 Este 0 -- -- 91
2018-09-01 09:00:00 12.2 0 Calma 2 Sudeste 0 -- -- 97
2018-09-01 08:00:00 11.9 0 Calma 2 Noroeste 0 -- -- 96
2018-09-01 07:00:00 12.2 0 Calma 0 Calma 0 -- -- 96
2018-09-01 06:00:00 12.7 0 Calma 2 Oeste 0 -- -- 95
2018-09-01 05:00:00 13.2 0 Calma -- -- 0 -- -- 95
2018-09-01 04:00:00 13.7 0 Calma 3 Noroeste 0 -- -- 94
2018-09-01 03:00:00 14.3 0 Calma 0 Calma 0 -- -- 93
2018-09-01 02:00:00 15 0 Calma 3 Oeste 0 -- -- 92
2018-09-01 01:00:00 15.9 0 Calma 3 Noroeste 0 -- -- 90
2018-09-01 00:00:00 17.2 0 Calma 4 Sudoeste 0 -- -- 86
2018-08-31 23:00:00 18.2 0 Calma 8 Sur 0 -- -- 82
2018-08-31 22:00:00 19.8 0 Calma 20 Oeste 0 -- -- 76
2018-08-31 21:00:00 21.7 4 Noroeste 20 Norte 0 -- -- 70
2018-08-31 20:00:00 22.9 12 Norte 28 Norte 0 -- -- 66
2018-08-31 19:00:00 24.7 15 Norte 33 Norte 0 -- -- 60
2018-08-31 18:00:00 25.6 19 Noroeste 36 Norte 0 -- -- 55
2018-08-31 17:00:00 26.1 17 Norte 39 Norte 0 -- -- 54
2018-08-31 16:00:00 26.3 15 Norte 31 Norte 0 -- -- 53
2018-08-31 15:00:00 26.3 13 Norte 26 Norte 0 -- -- 52
2018-08-31 14:00:00 25.9 7 Noroeste 21 Norte 0 -- -- 53
2018-08-31 13:00:00 24.6 5 Oeste 9 Nordeste 0 -- -- 54
2018-08-31 12:00:00 22.1 3 Noroeste 7 Noroeste 0 -- -- 62
2018-08-31 11:00:00 19.8 0 Calma 5 Noroeste 0 -- -- 72
2018-08-31 10:00:00 15.8 0 Calma 4 Noroeste 0 -- -- 89
2018-08-31 09:00:00 15.5 0 Calma 4 Noroeste 0 -- -- 90
2018-08-31 08:00:00 15 0 Calma 6 Sudeste 0 -- -- 93
2018-08-31 07:00:00 15.1 0 Calma 8 Sudeste 0 -- -- 94
2018-08-31 06:00:00 14.6 0 Calma -- -- 0 -- -- 96
2018-08-31 05:00:00 14.3 0 Calma -- -- 0 -- -- 95
2018-08-31 04:00:00 14.5 0 Calma -- -- 0 -- -- 95
2018-08-31 03:00:00 14.3 0 Calma 4 Sudeste 0 -- -- 93
2018-08-31 02:00:00 15.1 0 Calma 2 Este 0 -- -- 92
2018-08-31 01:00:00 16.2 0 Calma 3 Sur 0 -- -- 89
2018-08-31 00:00:00 17.4 0 Calma 4 Sur 0 -- -- 85
2018-08-30 23:00:00 18.9 0 Calma 9 Este 0 -- -- 80
2018-08-30 22:00:00 19.3 0 Calma 5 Sur 0 -- -- 79
2018-08-30 21:00:00 20.3 0 Calma 24 Norte 0 -- -- 73
2018-08-30 20:00:00 21 8 Norte 25 Norte 0 -- -- 72
2018-08-30 19:00:00 21.7 9 Norte 28 Noroeste 0 -- -- 70
2018-08-30 18:00:00 22.2 13 Noroeste 31 Norte 0 -- -- 70
2018-08-30 17:00:00 23.3 11 Noroeste 22 Noroeste 0 -- -- 64
2018-08-30 16:00:00 23.4 12 Norte 26 Norte 0 -- -- 63
2018-08-30 15:00:00 23.3 10 Norte 23 Noroeste 0 -- -- 62
2018-08-30 14:00:00 22.9 8 Norte 19 Norte 0 -- -- 62
2018-08-30 13:00:00 22.3 9 Norte 19 Norte 0 -- -- 65
2018-08-30 12:00:00 22.6 6 Norte 13 Noroeste 0 -- -- 66
2018-08-30 11:00:00 19.9 3 Norte 7 Norte 0 -- -- 76
2018-08-30 10:00:00 18.7 0 Calma 0 Calma 0 -- -- 82
2018-08-30 09:00:00 17.6 0 Calma 0 Calma 0 -- -- 88
2018-08-30 08:00:00 16.9 0 Calma -- -- 0 -- -- 91
2018-08-30 07:00:00 17.2 0 Calma -- -- 0 -- -- 91
2018-08-30 06:00:00 17.5 0 Calma -- -- 0 -- -- 90
2018-08-30 05:00:00 17.6 0 Calma -- -- 0 -- -- 90
2018-08-30 04:00:00 17.8 0 Calma 2 Noroeste 0 -- -- 88
2018-08-30 03:00:00 18 0 Calma 6 Este 0 -- -- 87
2018-08-30 02:00:00 18.1 0 Calma 3 Noroeste 0 -- -- 87
2018-08-30 01:00:00 18.3 0 Calma -- -- 0 -- -- 84
2018-08-30 00:00:00 18.7 0 Calma 8 Sudeste 0 -- -- 83
2018-08-29 23:00:00 19.2 4 Sudeste 9 Este 0 -- -- 80
2018-08-29 22:00:00 19.4 0 Calma 17 Norte 0 -- -- 75
2018-08-29 21:00:00 19.3 10 Noroeste 26 Noroeste 0 -- -- 76
2018-08-29 20:00:00 19.7 11 Noroeste 22 Noroeste 0 -- -- 75
2018-08-29 19:00:00 20.1 9 Noroeste 24 Norte 0 -- -- 73
2018-08-29 18:00:00 20.3 11 Norte 33 Norte 0 -- -- 72
2018-08-29 17:00:00 20.4 14 Noroeste 39 Noroeste 0 -- -- 73
2018-08-29 16:00:00 20.9 18 Norte 37 Norte 0 -- -- 73
2018-08-29 15:00:00 22.3 20 Norte 38 Norte 0 -- -- 67
2018-08-29 14:00:00 23.6 12 Norte 27 Norte 0 -- -- 65
2018-08-29 13:00:00 22.4 14 Norte 26 Norte 0 -- -- 69
2018-08-29 12:00:00 19.5 0 Calma 5 Norte 0 -- -- 79
2018-08-29 11:00:00 17.3 4 Noroeste 7 Noroeste 0 -- -- 85
2018-08-29 10:00:00 15.2 3 Noroeste 5 Norte 0 -- -- 92
2018-08-29 09:00:00 13.1 0 Calma 4 Sur 0 -- -- 97
2018-08-29 08:00:00 12.5 0 Calma 3 Noroeste 0 -- -- 96
2018-08-29 07:00:00 12.8 0 Calma 4 Oeste 0 -- -- 95
2018-08-29 06:00:00 13.4 0 Calma 4 Sudoeste 0 -- -- 94
2018-08-29 05:00:00 14 0 Calma 3 Noroeste 0 -- -- 94
2018-08-29 04:00:00 14.8 0 Calma 4 Sudeste 0 -- -- 91
2018-08-29 03:00:00 15.3 0 Calma 10 Sudeste 0 -- -- 90
2018-08-29 02:00:00 16.5 3 Sudeste 14 Sudeste 0 -- -- 85
2018-08-29 01:00:00 16.2 3 Sur 6 Sur 0 -- -- 89
2018-08-29 00:00:00 16.7 0 Calma 4 Oeste 0 -- -- 85
2018-08-28 23:00:00 17.9 2 Norte 8 Sudoeste 0 -- -- 83
2018-08-28 22:00:00 20.1 0 Calma 13 Sudoeste 0 -- -- 77
2018-08-28 21:00:00 23.7 2 Sudoeste 10 Noroeste 0 -- -- 57
2018-08-28 20:00:00 26.1 6 Norte 23 Noroeste 0 -- -- 44
2018-08-28 19:00:00 26.9 9 Noroeste 23 Noroeste 0 -- -- 42
2018-08-28 18:00:00 27.4 6 Norte 35 Norte 0 -- -- 44
2018-08-28 17:00:00 28.5 13 Norte 40 Norte 0 -- -- 40
2018-08-28 16:00:00 29.1 15 Norte 31 Norte 0 -- -- 46
2018-08-28 15:00:00 28.9 17 Norte 33 Norte 0 -- -- 48
2018-08-28 14:00:00 27.8 14 Norte 34 Norte 0 -- -- 49
2018-08-28 13:00:00 27.4 17 Norte 35 Norte 0 -- -- 51
2018-08-28 12:00:00 25.3 2 Sudeste 7 Sur 0 -- -- 61
2018-08-28 11:00:00 21.8 0 Calma 6 Sudeste 0 -- -- 75
2018-08-28 10:00:00 18.5 3 Este 5 Sudoeste 0 -- -- 88
2018-08-28 09:00:00 15.9 0 Calma 8 Sudeste 0 -- -- 96
2018-08-28 08:00:00 15.4 3 Sudeste 7 Sudeste 0 -- -- 96
2018-08-28 07:00:00 14.9 0 Calma 3 Noroeste 0 -- -- 96
2018-08-28 06:00:00 15 0 Calma 4 Noroeste 0 -- -- 96
2018-08-28 05:00:00 15.6 0 Calma 4 Sudoeste 0 -- -- 95
2018-08-28 04:00:00 16 0 Calma 4 Sudoeste 0 -- -- 95
2018-08-28 03:00:00 16.3 0 Calma 4 Noroeste 0 -- -- 94
2018-08-28 02:00:00 17.1 0 Calma 3 Oeste 0 -- -- 93
2018-08-28 01:00:00 17.8 0 Calma 3 Noroeste 0 -- -- 91
2018-08-28 00:00:00 19.2 0 Calma 6 Sudoeste 0 -- -- 88
2018-08-27 23:00:00 20.4 0 Calma 5 Sudeste 0 -- -- 84
2018-08-27 22:00:00 21.3 0 Calma 15 Norte 0 -- -- 81
2018-08-27 21:00:00 22.2 3 Oeste 13 Noroeste 0 -- -- 78
2018-08-27 20:00:00 23.8 9 Noroeste 22 Norte 0 -- -- 72
2018-08-27 19:00:00 24.6 12 Norte 29 Noroeste 0 -- -- 71
2018-08-27 18:00:00 25.5 14 Norte 37 Norte 0 -- -- 67
2018-08-27 17:00:00 25.9 17 Norte 46 Norte 0 -- -- 65
2018-08-27 16:00:00 27 17 Norte 37 Norte 0 -- -- 61
2018-08-27 15:00:00 26.9 16 Norte 32 Norte 0 -- -- 60
2018-08-27 14:00:00 27.2 9 Norte 23 Norte 0 -- -- 55
2018-08-27 13:00:00 26.1 8 Norte 16 Nordeste 0 -- -- 55
2018-08-27 12:00:00 24.1 4 Oeste 8 Noroeste 0 -- -- 63
2018-08-27 11:00:00 20.8 0 Calma 3 Noroeste 0 -- -- 76
2018-08-27 10:00:00 17 0 Calma 3 Este 0 -- -- 87
2018-08-27 09:00:00 13.2 0 Calma 2 Oeste 0 -- -- 97
2018-08-27 08:00:00 12.9 0 Calma 2 Sur 0 -- -- 96
2018-08-27 07:00:00 13.3 0 Calma 2 Oeste 0 -- -- 95
2018-08-27 06:00:00 13.8 0 Calma -- -- 0 -- -- 95
2018-08-27 05:00:00 14.1 0 Calma 3 Sudoeste 0 -- -- 94
2018-08-27 04:00:00 14.7 0 Calma 2 Noroeste 0 -- -- 94
2018-08-27 03:00:00 15.4 0 Calma 2 Noroeste 0 -- -- 92
2018-08-27 02:00:00 15.9 0 Calma 2 Oeste 0 -- -- 90
2018-08-27 01:00:00 16.9 0 Calma 2 Oeste 0 -- -- 87
2018-08-27 00:00:00 18 0 Calma 3 Oeste 0 -- -- 83
2018-08-26 23:00:00 19.4 0 Calma 4 Sudoeste 0 -- -- 79
2018-08-26 22:00:00 21.3 2 Noroeste 19 Norte 0 -- -- 71
2018-08-26 21:00:00 23 8 Noroeste 25 Norte 0 -- -- 64
2018-08-26 20:00:00 24.9 10 Noroeste 32 Noroeste 0 -- -- 59
2018-08-26 19:00:00 26.2 15 Noroeste 34 Noroeste 0 -- -- 56
2018-08-26 18:00:00 26.5 17 Norte 39 Norte 0 -- -- 54
2018-08-26 17:00:00 26.5 17 Norte 36 Norte 0 -- -- 53
2018-08-26 16:00:00 26.3 16 Norte 32 Norte 0 -- -- 55
2018-08-26 15:00:00 26.1 11 Norte 23 Norte 0 -- -- 56
2018-08-26 14:00:00 25.1 8 Norte 16 Norte 0 -- -- 55
2018-08-26 13:00:00 23.5 4 Noroeste 10 Noroeste 0 -- -- 54
2018-08-26 12:00:00 22.1 3 Sudoeste 6 Oeste 0 -- -- 58
2018-08-26 11:00:00 20.4 2 Sur 5 Este 0 -- -- 66
2018-08-26 10:00:00 17.5 0 Calma 10 Sudeste 0 -- -- 77
2018-08-26 09:00:00 16.6 3 Sur 7 Sudeste 0 -- -- 80
2018-08-26 08:00:00 16 0 Calma -- -- 0 -- -- 90
2018-08-26 07:00:00 16 0 Calma 0 Calma 0 -- -- 89
2018-08-26 06:00:00 16.1 0 Calma -- -- 0 -- -- 88
2018-08-26 05:00:00 16.2 0 Calma -- -- 0 -- -- 88
2018-08-26 04:00:00 -- 0 Calma 4 Oeste 0 -- -- 88
2018-08-26 03:00:00 16.5 0 Calma 3 Oeste 0 -- -- 86
2018-08-26 02:00:00 16.6 0 Calma 4 Oeste 0 -- -- 86
2018-08-26 01:00:00 16.6 3 Oeste 6 Sudoeste 0 -- -- 85
2018-08-26 00:00:00 16.9 6 Oeste 11 Sudoeste 0 -- -- 82
2018-08-25 23:00:00 17.6 2 Este 9 Norte 0 -- -- 76
2018-08-25 22:00:00 17.6 4 Norte 14 Noroeste 0 -- -- 74
2018-08-25 21:00:00 17.8 10 Norte 22 Oeste 0 -- -- 74
2018-08-25 20:00:00 18.5 7 Norte 22 Norte 0 -- -- 70
2018-08-25 19:00:00 19.1 11 Noroeste 32 Noroeste 0 -- -- 68
2018-08-25 18:00:00 20.2 12 Norte 29 Norte 0 -- -- 64
2018-08-25 17:00:00 20.9 12 Norte 38 Norte 0 -- -- 61
2018-08-25 16:00:00 21.6 16 Noroeste 32 Noroeste 0 -- -- 58
2018-08-25 15:00:00 21.3 15 Norte 33 Norte 0 -- -- 58
2018-08-25 14:00:00 21.9 13 Noroeste 30 Norte 0 -- -- 57
2018-08-25 13:00:00 22.1 7 Norte 20 Norte 0 -- -- 54
2018-08-25 12:00:00 21.8 7 Norte 20 Norte 0 -- -- 49
2018-08-25 11:00:00 20.1 5 Nordeste 13 Nordeste 0 -- -- 61
2018-08-25 10:00:00 17.4 2 Sur 6 Sudeste 0 -- -- 80
2018-08-25 09:00:00 14.6 0 Calma 5 Noroeste 0 -- -- 93
2018-08-25 08:00:00 13.9 0 Calma 3 Sudeste 0 -- -- 94
2018-08-25 07:00:00 14.8 0 Calma 4 Sudeste 0 -- -- 90
2018-08-25 06:00:00 15.8 0 Calma 3 Noroeste 0 -- -- 90
2018-08-25 05:00:00 16.2 0 Calma 2 Oeste 0 -- -- 87
2018-08-25 04:00:00 16.4 0 Calma 4 Noroeste 0 -- -- 86
2018-08-25 03:00:00 16.9 3 Sudeste 6 Sudeste 0 -- -- 82
2018-08-25 02:00:00 16.8 0 Calma 4 Noroeste 0 -- -- 83
2018-08-25 01:00:00 16.9 0 Calma 4 Sur 0 -- -- 82
2018-08-25 00:00:00 17.3 0 Calma 5 Sur 0 -- -- 79
2018-08-24 23:00:00 18.1 3 Sudeste 15 Noroeste 0 -- -- 74
2018-08-24 22:00:00 18.4 5 Norte 21 Noroeste 0 -- -- 73
2018-08-24 21:00:00 18.4 7 Norte 26 Noroeste 0 -- -- 72
2018-08-24 20:00:00 18.5 12 Noroeste 31 Norte 0 -- -- 72
2018-08-24 19:00:00 19.2 9 Noroeste 39 Norte 0 -- -- 73
2018-08-24 18:00:00 19.2 14 Norte 37 Norte 0 -- -- 73
2018-08-24 17:00:00 20.2 18 Norte 38 Norte 0 -- -- 72
2018-08-24 16:00:00 20.8 21 Norte 39 Norte 0 -- -- 69
2018-08-24 15:00:00 22.1 16 Noroeste 39 Noroeste 0 -- -- 66
2018-08-24 14:00:00 22.1 19 Noroeste 36 Norte 0 -- -- 64
2018-08-24 13:00:00 22.1 15 Noroeste 29 Norte 0 -- -- 65
2018-08-24 12:00:00 21.3 11 Norte 22 Noroeste 0 -- -- 69
2018-08-24 11:00:00 20.6 2 Noroeste 6 Sur 0 -- -- 75
2018-08-24 10:00:00 19 4 Sur 6 Sudeste 0 -- -- 81
2018-08-24 09:00:00 17.7 0 Calma 4 Sur 0 -- -- 89
2018-08-24 08:00:00 16.8 0 Calma 6 Sudeste 0 -- -- 91
2018-08-24 07:00:00 17.5 0 Calma 4 Noroeste 0 -- -- 90
2018-08-24 06:00:00 17.5 3 Noroeste 6 Noroeste 0 -- -- 90
2018-08-24 05:00:00 17.8 0 Calma 4 Sudoeste 0 -- -- 88
2018-08-24 04:00:00 18.1 0 Calma 6 Sur 0 -- -- 86
2018-08-24 03:00:00 19.4 3 Sur 6 Sudeste 0 -- -- 81
2018-08-24 02:00:00 19.6 0 Calma 9 Sudeste 0 -- -- 80
2018-08-24 01:00:00 20.8 6 Norte 14 Norte 0 -- -- 75
2018-08-24 00:00:00 21 9 Norte 21 Noroeste 0 -- -- 74